Time;durP1;ratioP1;P1;durP2;ratioP2;P2;SDS_P1;SDS_P2;PMS_P1;PMS_P2;Temp;Humidity;BMP_temperature;BMP_pressure;BME280_temperature;BME280_humidity;BME280_pressure;Samples;Min_cycle;Max_cycle;Signal;HPM_P1;HPM_P2
2024/04/10 00:01:41;;;;;;;;;;;11.80;99.90;;;;;;5524577;26;20382;-73
2024/04/10 00:04:06;;;;;;;;;;;11.80;99.90;;;;;;5527324;26;19931;-73
2024/04/10 00:06:32;;;;;;;;;;;11.80;99.90;;;;;;5515805;25;19935;-73
2024/04/10 00:08:59;;;;;;;;;;;11.90;99.90;;;;;;5563390;25;20257;-73
2024/04/10 00:11:25;;;;;;;;;;;11.90;99.90;;;;;;5562610;25;19955;-73
2024/04/10 00:13:51;;;;;;;;;;;11.80;99.90;;;;;;5562740;25;20033;-73
2024/04/10 00:16:17;;;;;;;;;;;11.80;99.90;;;;;;5527719;25;19956;-73
2024/04/10 00:18:43;;;;;;;;;;;11.70;99.90;;;;;;5489541;26;19956;-72
2024/04/10 00:21:09;;;;;;;;;;;11.70;99.90;;;;;;5472620;26;20307;-73
2024/04/10 00:23:35;;;;;;;;;;;11.70;99.90;;;;;;5527108;26;19968;-73
2024/04/10 00:26:01;;;;;;;;;;;11.60;99.90;;;;;;5513056;26;19936;-73
2024/04/10 00:28:28;;;;;;;;;;;11.60;99.90;;;;;;5509885;26;19955;-73
2024/04/10 00:30:54;;;;;;;;;;;11.60;99.90;;;;;;5525578;26;19955;-73
2024/04/10 00:33:20;;;;;;;;;;;11.50;99.90;;;;;;5525269;26;19942;-73
2024/04/10 00:35:58;;;;;;;;;;;11.50;99.90;;;;;;5524614;26;19934;-73
2024/04/10 00:38:25;;;;;;;;;;;11.60;99.90;;;;;;5525273;26;19955;-78
2024/04/10 00:40:52;;;;;;;;;;;11.60;99.90;;;;;;5525853;26;19955;-79
2024/04/10 00:43:18;;;;;;;;;;;11.60;99.90;;;;;;5492947;26;19960;-77
2024/04/10 00:45:44;;;;;;;;;;;11.60;99.90;;;;;;5525393;26;19956;-79
2024/04/10 00:48:10;;;;;;;;;;;11.60;99.90;;;;;;5493633;26;19935;-79
2024/04/10 00:50:36;;;;;;;;;;;11.60;99.90;;;;;;5524898;26;19939;-79
2024/04/10 00:53:02;;;;;;;;;;;11.60;99.90;;;;;;5492781;26;19942;-79
2024/04/10 00:55:28;;;;;;;;;;;11.60;99.90;;;;;;5525552;26;20440;-79
2024/04/10 00:57:54;;;;;;;;;;;11.60;99.90;;;;;;5526347;26;19942;-79
2024/04/10 01:00:20;;;;;;;;;;;11.60;99.90;;;;;;5525382;25;19951;-79
2024/04/10 01:02:46;;;;;;;;;;;11.50;99.90;;;;;;5525508;26;19927;-79
2024/04/10 01:05:12;;;;;;;;;;;11.50;99.90;;;;;;5524304;26;19928;-79
2024/04/10 01:07:38;;;;;;;;;;;11.40;99.90;;;;;;5526150;26;20299;-79
2024/04/10 01:10:04;;;;;;;;;;;11.40;99.90;;;;;;5524957;26;19971;-79
2024/04/10 01:12:33;;;;;;;;;;;11.40;99.90;;;;;;5523388;26;19955;-79
2024/04/10 01:14:59;;;;;;;;;;;11.30;99.90;;;;;;5493936;26;19955;-79
2024/04/10 01:17:25;;;;;;;;;;;11.30;99.90;;;;;;5524739;25;20392;-79
2024/04/10 01:19:51;;;;;;;;;;;11.30;99.90;;;;;;5526276;26;19938;-79
2024/04/10 01:22:17;;;;;;;;;;;11.30;99.90;;;;;;5491563;26;19939;-79
2024/04/10 01:24:43;;;;;;;;;;;11.30;99.90;;;;;;5510921;26;20329;-78
2024/04/10 01:27:09;;;;;;;;;;;11.30;99.90;;;;;;5495292;26;19934;-79
2024/04/10 01:29:36;;;;;;;;;;;11.30;99.90;;;;;;5493594;26;19927;-79
2024/04/10 01:32:01;;;;;;;;;;;11.20;99.90;;;;;;5523387;26;19951;-79
2024/04/10 01:34:27;;;;;;;;;;;11.20;99.90;;;;;;5526017;26;19934;-79
2024/04/10 01:36:53;;;;;;;;;;;11.20;99.90;;;;;;5524679;26;19933;-79
2024/04/10 01:39:20;;;;;;;;;;;11.10;99.90;;;;;;5525889;26;19932;-79
2024/04/10 01:41:46;;;;;;;;;;;11.00;99.90;;;;;;5523166;26;19959;-79
2024/04/10 01:44:12;;;;;;;;;;;11.00;99.90;;;;;;5492757;26;20280;-79
2024/04/10 01:46:38;;;;;;;;;;;11.00;99.90;;;;;;5524462;26;19941;-79
2024/04/10 01:49:04;;;;;;;;;;;10.90;99.90;;;;;;5525608;26;20387;-79
2024/04/10 01:51:30;;;;;;;;;;;10.90;99.90;;;;;;5523573;26;19955;-79
2024/04/10 01:53:56;;;;;;;;;;;10.90;99.90;;;;;;5524002;26;20300;-79
2024/04/10 01:56:22;;;;;;;;;;;10.90;99.90;;;;;;5523617;26;19960;-79
2024/04/10 01:58:48;;;;;;;;;;;10.90;99.90;;;;;;5525119;26;19938;-79
2024/04/10 02:01:14;;;;;;;;;;;10.90;99.90;;;;;;5525813;25;20266;-79
2024/04/10 02:03:40;;;;;;;;;;;10.70;99.90;;;;;;5509967;26;19931;-80
2024/04/10 02:06:05;;;;;;;;;;;10.80;99.90;;;;;;5506520;26;19955;-79
2024/04/10 02:08:31;;;;;;;;;;;10.80;99.90;;;;;;5526813;26;20259;-79
2024/04/10 02:11:19;;;;;;;;;;;10.80;99.90;;;;;;5525908;26;19931;-79
2024/04/10 02:13:43;;;;;;;;;;;10.80;99.90;;;;;;5526206;26;19986;-79
2024/04/10 02:16:09;;;;;;;;;;;10.80;99.90;;;;;;5477046;26;19935;-80
2024/04/10 02:18:35;;;;;;;;;;;10.70;99.90;;;;;;5525620;26;19975;-79
2024/04/10 02:21:01;;;;;;;;;;;10.70;99.90;;;;;;5526445;26;19932;-79
2024/04/10 02:23:27;;;;;;;;;;;10.70;99.90;;;;;;5526165;26;20285;-78
2024/04/10 02:25:53;;;;;;;;;;;10.70;99.90;;;;;;5524954;26;19951;-79
2024/04/10 02:28:19;;;;;;;;;;;10.70;99.90;;;;;;5506658;26;19939;-79
2024/04/10 02:30:45;;;;;;;;;;;10.70;99.90;;;;;;5507259;25;19938;-79
2024/04/10 02:33:11;;;;;;;;;;;10.70;99.90;;;;;;5563405;25;19941;-79
2024/04/10 02:35:36;;;;;;;;;;;10.70;99.90;;;;;;5559508;25;20422;-79
2024/04/10 02:38:02;;;;;;;;;;;10.60;99.90;;;;;;5532214;25;19938;-78
2024/04/10 02:40:29;;;;;;;;;;;10.50;99.90;;;;;;5532290;25;19935;-79
2024/04/10 02:43:05;;;;;;;;;;;10.50;99.90;;;;;;5565490;25;19951;-79
2024/04/10 02:45:31;;;;;;;;;;;10.40;99.90;;;;;;5552701;25;19952;-79
2024/04/10 02:47:57;;;;;;;;;;;10.30;99.90;;;;;;5491741;26;19956;-79
2024/04/10 02:50:23;;;;;;;;;;;10.40;99.90;;;;;;5493958;26;19941;-79
2024/04/10 02:52:49;;;;;;;;;;;10.40;99.90;;;;;;5527875;26;19939;-79
2024/04/10 02:55:15;;;;;;;;;;;10.40;99.90;;;;;;5526411;26;19942;-79
2024/04/10 02:57:40;;;;;;;;;;;10.30;99.90;;;;;;5489659;26;19968;-78
2024/04/10 03:00:10;;;;;;;;;;;10.30;99.90;;;;;;5488919;26;20376;-79
2024/04/10 03:02:36;;;;;;;;;;;10.20;99.90;;;;;;5490411;26;19964;-79
2024/04/10 03:05:04;;;;;;;;;;;10.20;99.90;;;;;;5490573;26;19956;-78
2024/04/10 03:07:30;;;;;;;;;;;10.20;99.90;;;;;;5560608;25;19951;-79
2024/04/10 03:09:57;;;;;;;;;;;10.10;99.90;;;;;;5565065;25;19960;-78
2024/04/10 03:12:23;;;;;;;;;;;10.10;99.90;;;;;;5432216;26;19960;-79
2024/04/10 03:14:49;;;;;;;;;;;10.10;99.90;;;;;;5490518;26;19952;-79
2024/04/10 03:17:16;;;;;;;;;;;10.10;99.90;;;;;;5521692;26;19935;-79
2024/04/10 03:19:43;;;;;;;;;;;10.00;99.90;;;;;;5527108;26;19951;-79
2024/04/10 03:22:09;;;;;;;;;;;10.00;99.90;;;;;;5526869;26;19959;-78
2024/04/10 03:24:34;;;;;;;;;;;10.00;99.90;;;;;;5527099;26;19959;-79
2024/04/10 03:27:00;;;;;;;;;;;10.00;99.90;;;;;;5497329;26;19928;-79
2024/04/10 03:29:26;;;;;;;;;;;9.90;99.90;;;;;;5527895;26;20383;-78
2024/04/10 03:31:56;;;;;;;;;;;9.90;99.90;;;;;;5525670;26;19935;-78
2024/04/10 03:34:21;;;;;;;;;;;9.90;99.90;;;;;;5525920;26;19968;-79
2024/04/10 03:36:48;;;;;;;;;;;10.00;99.90;;;;;;5526471;26;19936;-78
2024/04/10 03:39:13;;;;;;;;;;;10.00;99.90;;;;;;5527569;26;19943;-79
2024/04/10 03:41:39;;;;;;;;;;;9.90;99.90;;;;;;5526789;26;19938;-78
2024/04/10 03:44:06;;;;;;;;;;;9.90;99.90;;;;;;5527562;26;19938;-79
2024/04/10 03:46:34;;;;;;;;;;;10.00;99.90;;;;;;5526616;25;19955;-78
2024/04/10 03:49:00;;;;;;;;;;;10.00;99.90;;;;;;5526056;26;20317;-78
2024/04/10 03:51:26;;;;;;;;;;;10.00;99.90;;;;;;5525130;26;19958;-78
2024/04/10 03:53:52;;;;;;;;;;;10.00;99.90;;;;;;5527133;26;19935;-78
2024/04/10 03:56:18;;;;;;;;;;;10.00;99.90;;;;;;5526788;26;19931;-79
2024/04/10 03:58:48;;;;;;;;;;;10.00;99.90;;;;;;5527175;26;19931;-78
2024/04/10 04:01:13;;;;;;;;;;;10.00;99.90;;;;;;5526347;25;19960;-78
2024/04/10 04:03:40;;;;;;;;;;;9.90;99.90;;;;;;5527111;26;19931;-79
2024/04/10 04:06:06;;;;;;;;;;;10.00;99.90;;;;;;5524856;26;19956;-79
2024/04/10 04:08:32;;;;;;;;;;;10.00;99.90;;;;;;5527171;26;19932;-79
2024/04/10 04:10:58;;;;;;;;;;;10.00;99.90;;;;;;5526105;26;19927;-78
2024/04/10 04:13:24;;;;;;;;;;;10.00;99.90;;;;;;5526476;26;20368;-79
2024/04/10 04:15:49;;;;;;;;;;;10.00;99.90;;;;;;5524820;26;20062;-73
2024/04/10 04:18:16;;;;;;;;;;;10.00;99.90;;;;;;5526299;26;19942;-72
2024/04/10 04:20:42;;;;;;;;;;;10.00;99.90;;;;;;5524838;26;19962;-73
2024/04/10 04:23:07;;;;;;;;;;;10.00;99.90;;;;;;5526237;26;19927;-72
2024/04/10 04:25:33;;;;;;;;;;;9.90;99.90;;;;;;5520392;26;20293;-73
2024/04/10 04:27:59;;;;;;;;;;;10.00;99.90;;;;;;5505220;26;20296;-72
2024/04/10 04:30:25;;;;;;;;;;;10.00;99.90;;;;;;5525953;26;19932;-73
2024/04/10 04:32:51;;;;;;;;;;;9.90;99.90;;;;;;5525173;26;19940;-72
2024/04/10 04:35:17;;;;;;;;;;;9.90;99.90;;;;;;5524831;26;19943;-72
2024/04/10 04:37:45;;;;;;;;;;;10.00;99.90;;;;;;5526876;26;19957;-73
2024/04/10 04:40:11;;;;;;;;;;;9.90;99.90;;;;;;5524623;26;19960;-73
2024/04/10 04:42:37;;;;;;;;;;;9.90;99.90;;;;;;5527191;26;19930;-72
2024/04/10 04:45:03;;;;;;;;;;;9.90;99.90;;;;;;5525632;25;19959;-72
2024/04/10 04:47:29;;;;;;;;;;;9.90;99.90;;;;;;5526234;26;19951;-73
2024/04/10 04:49:55;;;;;;;;;;;9.90;99.90;;;;;;5493162;26;20698;-73
2024/04/10 04:52:20;;;;;;;;;;;9.80;99.90;;;;;;5525293;26;20391;-72
2024/04/10 04:54:46;;;;;;;;;;;9.80;99.90;;;;;;5526603;26;19931;-73
2024/04/10 04:57:13;;;;;;;;;;;9.80;99.90;;;;;;5526067;26;19942;-74
2024/04/10 04:59:39;;;;;;;;;;;9.80;99.90;;;;;;5525815;26;19959;-73
2024/04/10 05:02:06;;;;;;;;;;;9.90;99.90;;;;;;5525071;25;20285;-72
2024/04/10 05:07:16;;;;;;;;;;;9.80;99.90;;;;;;5526479;26;20314;-73
2024/04/10 05:09:47;;;;;;;;;;;9.80;99.90;;;;;;5493678;26;19934;-73
2024/04/10 05:12:13;;;;;;;;;;;9.70;99.90;;;;;;5524352;26;20291;-73
2024/04/10 05:14:39;;;;;;;;;;;9.60;99.90;;;;;;5526450;26;20062;-72
2024/04/10 05:17:05;;;;;;;;;;;9.60;99.90;;;;;;5524026;26;19939;-72
2024/04/10 05:19:31;;;;;;;;;;;9.50;99.90;;;;;;5525244;26;19955;-80
2024/04/10 05:21:58;;;;;;;;;;;9.60;99.90;;;;;;5520620;25;19954;-79
2024/04/10 05:24:24;;;;;;;;;;;9.50;99.90;;;;;;5512876;26;20404;-79
2024/04/10 05:26:49;;;;;;;;;;;9.40;99.90;;;;;;5525365;26;19936;-79
2024/04/10 05:29:15;;;;;;;;;;;9.50;99.90;;;;;;5525906;26;19939;-79
2024/04/10 05:31:42;;;;;;;;;;;9.60;99.90;;;;;;5522866;26;19935;-79
2024/04/10 05:34:08;;;;;;;;;;;9.50;99.90;;;;;;5525832;26;20293;-78
2024/04/10 05:36:34;;;;;;;;;;;9.60;99.90;;;;;;5490754;26;20296;-78
2024/04/10 05:39:00;;;;;;;;;;;9.60;99.90;;;;;;5524820;26;19931;-79
2024/04/10 05:41:26;;;;;;;;;;;9.60;99.90;;;;;;5524932;26;19960;-79
2024/04/10 05:43:52;;;;;;;;;;;9.60;99.90;;;;;;5525532;26;19955;-79
2024/04/10 05:46:18;;;;;;;;;;;9.60;99.90;;;;;;5523949;25;19931;-79
2024/04/10 05:48:44;;;;;;;;;;;9.60;99.90;;;;;;5524935;26;19931;-78
2024/04/10 05:51:10;;;;;;;;;;;9.70;99.90;;;;;;5476715;26;19956;-79
2024/04/10 05:53:36;;;;;;;;;;;9.70;99.90;;;;;;5488496;26;19947;-78
2024/04/10 05:56:04;;;;;;;;;;;9.70;99.90;;;;;;5501159;26;19932;-79
2024/04/10 05:58:31;;;;;;;;;;;9.70;99.90;;;;;;5524369;26;20392;-79
2024/04/10 06:00:56;;;;;;;;;;;9.70;99.90;;;;;;5491292;26;19964;-78
2024/04/10 06:03:22;;;;;;;;;;;9.70;99.90;;;;;;5525082;26;19935;-79
2024/04/10 06:05:48;;;;;;;;;;;9.80;99.90;;;;;;5523467;26;19931;-79
2024/04/10 06:08:14;;;;;;;;;;;9.90;99.90;;;;;;5525037;26;20422;-78
2024/04/10 06:10:40;;;;;;;;;;;10.10;99.90;;;;;;5524203;26;20388;-77
2024/04/10 06:13:06;;;;;;;;;;;10.30;99.90;;;;;;5524399;26;20405;-79
2024/04/10 06:15:32;;;;;;;;;;;10.40;99.90;;;;;;5522377;25;19943;-80
2024/04/10 06:17:58;;;;;;;;;;;10.80;99.90;;;;;;5524063;26;19927;-79
2024/04/10 06:20:24;;;;;;;;;;;11.10;99.90;;;;;;5524046;26;20297;-79
2024/04/10 06:22:50;;;;;;;;;;;11.40;99.90;;;;;;5524959;26;19952;-79
2024/04/10 06:25:16;;;;;;;;;;;11.50;99.90;;;;;;5521474;26;20300;-79
2024/04/10 06:27:42;;;;;;;;;;;11.70;99.90;;;;;;5496572;26;19934;-79
2024/04/10 06:30:09;;;;;;;;;;;11.80;99.90;;;;;;5523585;26;19935;-79
2024/04/10 06:32:35;;;;;;;;;;;11.90;99.90;;;;;;5523390;26;19952;-79
2024/04/10 06:35:01;;;;;;;;;;;12.00;99.90;;;;;;5523498;26;19946;-79
2024/04/10 06:37:28;;;;;;;;;;;11.90;99.90;;;;;;5523807;26;19937;-79
2024/04/10 06:39:54;;;;;;;;;;;11.80;99.90;;;;;;5524648;26;19959;-79
2024/04/10 06:42:20;;;;;;;;;;;11.70;99.90;;;;;;5523997;26;19931;-80
2024/04/10 06:44:48;;;;;;;;;;;11.70;99.90;;;;;;5523915;26;19971;-79
2024/04/10 06:47:14;;;;;;;;;;;11.60;99.90;;;;;;5462367;26;20028;-79
2024/04/10 06:49:40;;;;;;;;;;;11.70;99.90;;;;;;5491210;26;19958;-79
2024/04/10 06:52:06;;;;;;;;;;;11.50;99.90;;;;;;5519020;26;20397;-79
2024/04/10 06:54:32;;;;;;;;;;;11.60;99.90;;;;;;5528062;26;19938;-79
2024/04/10 06:56:58;;;;;;;;;;;11.60;99.90;;;;;;5527439;26;19995;-79
2024/04/10 06:59:23;;;;;;;;;;;11.70;99.90;;;;;;5526170;26;19939;-79
2024/04/10 07:01:49;;;;;;;;;;;11.90;99.90;;;;;;5517955;25;19958;-79
2024/04/10 07:04:16;;;;;;;;;;;12.00;99.90;;;;;;5565634;25;19927;-79
2024/04/10 07:06:42;;;;;;;;;;;12.30;99.90;;;;;;5517669;25;19952;-79
2024/04/10 07:09:09;;;;;;;;;;;12.50;99.90;;;;;;5489341;26;19927;-73
2024/04/10 07:11:35;;;;;;;;;;;12.70;99.90;;;;;;5511407;26;19955;-72
2024/04/10 07:14:01;;;;;;;;;;;12.80;99.90;;;;;;5526969;26;19960;-72
2024/04/10 07:16:29;;;;;;;;;;;12.90;99.90;;;;;;5526124;25;20393;-72
2024/04/10 07:18:56;;;;;;;;;;;12.90;99.90;;;;;;5527469;26;19951;-73
2024/04/10 07:21:22;;;;;;;;;;;13.10;99.90;;;;;;5512239;25;19954;-72
2024/04/10 07:23:48;;;;;;;;;;;13.40;99.90;;;;;;5555578;25;19934;-73
2024/04/10 07:26:15;;;;;;;;;;;13.70;99.90;;;;;;5525191;26;19959;-73
2024/04/10 07:28:44;;;;;;;;;;;14.00;99.90;;;;;;5526101;26;19955;-72
2024/04/10 07:31:11;;;;;;;;;;;14.30;99.90;;;;;;5526398;26;20383;-73
2024/04/10 07:33:37;;;;;;;;;;;14.60;99.90;;;;;;5495516;26;19951;-73
2024/04/10 07:36:07;;;;;;;;;;;14.80;99.90;;;;;;5525771;26;20038;-73
2024/04/10 07:38:33;;;;;;;;;;;15.00;99.90;;;;;;5527854;26;19960;-72
2024/04/10 07:40:59;;;;;;;;;;;15.10;99.90;;;;;;5525354;26;19995;-72
2024/04/10 07:43:24;;;;;;;;;;;15.30;99.90;;;;;;5527385;26;19927;-72
2024/04/10 07:45:50;;;;;;;;;;;15.30;99.90;;;;;;5526470;26;19931;-72
2024/04/10 07:48:17;;;;;;;;;;;15.30;99.90;;;;;;5526968;26;20364;-73
2024/04/10 07:50:43;;;;;;;;;;;15.30;99.90;;;;;;5525999;26;19970;-72
2024/04/10 07:53:09;;;;;;;;;;;15.30;99.90;;;;;;5526117;26;20284;-73
2024/04/10 07:55:35;;;;;;;;;;;15.10;99.90;;;;;;5525514;26;19955;-73
2024/04/10 07:58:01;;;;;;;;;;;15.10;99.90;;;;;;5524323;26;19942;-72
2024/04/10 08:00:27;;;;;;;;;;;15.00;99.90;;;;;;5524594;26;20742;-73
2024/04/10 08:02:53;;;;;;;;;;;14.90;99.90;;;;;;5526137;26;19960;-73
2024/04/10 08:05:19;;;;;;;;;;;14.90;99.90;;;;;;5526932;26;19931;-72
2024/04/10 08:07:45;;;;;;;;;;;14.80;99.90;;;;;;5526403;26;19935;-73
2024/04/10 08:10:12;;;;;;;;;;;14.90;99.90;;;;;;5525693;26;19955;-80
2024/04/10 08:12:39;;;;;;;;;;;14.80;99.90;;;;;;5526496;26;19971;-80
2024/04/10 08:15:05;;;;;;;;;;;14.80;99.90;;;;;;5526490;25;19962;-80
2024/04/10 08:17:33;;;;;;;;;;;15.00;99.90;;;;;;5525250;26;19952;-79
2024/04/10 08:19:59;;;;;;;;;;;15.10;99.90;;;;;;5525477;26;20396;-77
2024/04/10 08:50:37;;;;;;;1999.90;999.90;;;15.30;99.90;;;;;;5466737;25;20870;-79
2024/04/10 08:53:03;;;;;;;1999.90;999.90;;;16.10;99.90;;;;;;5430413;26;20374;-79
2024/04/10 08:55:31;;;;;;;1999.90;999.90;;;16.10;99.90;;;;;;5427966;26;20921;-79
2024/04/10 08:57:57;;;;;;;1999.90;999.90;;;16.10;99.90;;;;;;5398379;26;20032;-78
2024/04/10 09:00:23;;;;;;;1999.90;999.90;;;16.10;99.90;;;;;;5403695;26;20084;-78
2024/04/10 09:02:49;;;;;;;1999.90;999.90;;;15.80;99.90;;;;;;5360377;26;20101;-78
2024/04/10 09:05:29;;;;;;;1999.90;999.90;;;15.70;99.90;;;;;;5359350;26;20029;-78
2024/04/10 09:08:02;;;;;;;1999.90;999.90;;;15.70;99.90;;;;;;5327197;27;20033;-78
2024/04/10 09:10:28;;;;;;;1999.90;999.90;;;15.60;99.90;;;;;;5327259;26;20429;-79
2024/04/10 09:13:10;;;;;;;1999.90;999.90;;;15.50;99.90;;;;;;5347659;26;20029;-78
2024/04/10 09:15:39;;;;;;;1999.90;999.90;;;15.40;99.90;;;;;;5354883;26;20058;-79
2024/04/10 09:18:06;;;;;;;1999.90;999.90;;;15.50;99.90;;;;;;5354473;26;20037;-79
2024/04/10 09:20:32;;;;;;;1999.90;999.90;;;15.50;99.90;;;;;;5354406;26;20060;-79
2024/04/10 09:23:06;;;;;;;1999.90;999.90;;;15.50;99.90;;;;;;5327180;27;20052;-79
2024/04/10 09:25:35;;;;;;;1999.90;999.90;;;15.40;99.90;;;;;;5270347;26;20057;-78
2024/04/10 09:28:05;;;;;;;1999.90;999.90;;;15.50;99.90;;;;;;5325073;27;20046;-79
2024/04/10 09:30:32;;;;;;;1999.90;999.90;;;15.50;99.90;;;;;;5326206;26;20041;-79
2024/04/10 09:33:02;;;;;;;1999.90;999.90;;;15.40;99.90;;;;;;5328587;26;20033;-79
2024/04/10 09:35:29;;;;;;;1999.90;999.90;;;15.30;99.90;;;;;;5324727;26;20033;-79
2024/04/10 09:37:59;;;;;;;1999.90;999.90;;;15.50;99.90;;;;;;5326775;27;20025;-78
2024/04/10 09:40:26;;;;;;;1999.90;999.90;;;15.40;99.90;;;;;;5326747;26;20042;-79
2024/04/10 09:43:04;;;;;;;1999.90;999.90;;;15.50;99.90;;;;;;5326904;27;20280;-79
2024/04/10 09:45:34;;;;;;;1999.90;999.90;;;15.50;99.90;;;;;;5326375;26;21454;-79
2024/04/10 09:48:05;;;;;;;1999.90;999.90;;;15.70;99.90;;;;;;5359558;26;20033;-79
2024/04/10 09:50:42;;;;;;;1999.90;999.90;;;15.80;99.90;;;;;;5358874;26;20052;-79
2024/04/10 09:53:10;;;;;;;1999.90;999.90;;;15.90;99.90;;;;;;5359137;26;20477;-79
2024/04/10 09:55:38;;;;;;;1999.90;999.90;;;16.00;99.90;;;;;;5330569;26;20058;-79
2024/04/10 09:58:08;;;;;;;1999.90;999.90;;;16.10;99.90;;;;;;5361117;26;20040;-79
2024/04/10 10:00:34;;;;;;;1999.90;999.90;;;16.30;99.90;;;;;;5347593;26;20045;-79
2024/04/10 10:03:10;;;;;;;1999.90;999.90;;;16.40;99.90;;;;;;5314281;26;20025;-79
2024/04/10 10:05:37;;;;;;;1999.90;999.90;;;16.50;99.90;;;;;;5346923;26;20041;-79
2024/04/10 10:08:04;;;;;;;1999.90;999.90;;;16.60;99.90;;;;;;5347778;26;20032;-79
2024/04/10 10:10:41;;;;;;;1999.90;999.90;;;16.70;99.90;;;;;;5340642;26;20029;-79
2024/04/10 10:13:07;;;;;;;1999.90;999.90;;;16.90;99.90;;;;;;5313368;27;20033;-80
2024/04/10 10:15:33;;;;;;;1999.90;999.90;;;16.90;99.90;;;;;;5312350;26;20045;-79
2024/04/10 10:17:59;;;;;;;1999.90;999.90;;;16.80;99.90;;;;;;5327789;26;20384;-79
2024/04/10 10:20:25;;;;;;;1999.90;999.90;;;16.90;99.90;;;;;;5343041;26;20025;-79
2024/04/10 10:22:59;;;;;;;1999.90;999.90;;;17.00;99.90;;;;;;5313166;27;20025;-79
2024/04/10 10:25:26;;;;;;;1999.90;999.90;;;17.30;99.90;;;;;;5312816;26;20361;-78
2024/04/10 10:28:11;;;;;;;1999.90;999.90;;;17.50;99.90;;;;;;5313249;26;20030;-78
2024/04/10 10:30:39;;;;;;;1999.90;999.90;;;17.50;99.90;;;;;;5313394;26;20468;-79
2024/04/10 10:33:05;;;;;;;1999.90;999.90;;;17.50;99.90;;;;;;5313901;26;20041;-79
2024/04/10 10:35:32;;;;;;;1999.90;999.90;;;17.70;99.90;;;;;;5313104;26;20030;-79
2024/04/10 10:37:59;;;;;;;1999.90;999.90;;;17.70;99.90;;;;;;5312858;26;20512;-78
2024/04/10 10:40:25;;;;;;;1999.90;999.90;;;17.90;99.90;;;;;;5312724;26;20041;-78
2024/04/10 10:43:02;;;;;;;1999.90;999.90;;;18.00;99.90;;;;;;5313010;26;20037;-79
2024/04/10 10:45:29;;;;;;;1999.90;999.90;;;18.10;99.90;;;;;;5312149;26;20047;-79
2024/04/10 10:47:55;;;;;;;1999.90;999.90;;;18.30;99.90;;;;;;5344836;26;20045;-79
2024/04/10 10:50:22;;;;;;;1999.90;999.90;;;18.50;99.90;;;;;;5344326;26;20381;-78
2024/04/10 10:52:48;;;;;;;1999.90;999.90;;;18.40;99.90;;;;;;5347142;26;20032;-79
2024/04/10 10:55:15;;;;;;;1999.90;999.90;;;18.50;99.90;;;;;;5346248;26;20476;-79
2024/04/10 10:57:41;;;;;;;1999.90;999.90;;;18.50;99.90;;;;;;5313841;26;20033;-79
2024/04/10 11:00:16;;;;;;;1999.90;999.90;;;18.60;99.90;;;;;;5310503;26;20102;-80
2024/04/10 11:02:43;;;;;;;1999.90;999.90;;;18.60;99.90;;;;;;5312496;27;20372;-79
2024/04/10 11:05:11;;;;;;;1999.90;999.90;;;18.60;99.90;;;;;;5330421;26;20477;-79
2024/04/10 11:07:41;;;;;;;1999.90;999.90;;;18.70;99.90;;;;;;5312472;27;20041;-79
2024/04/10 11:10:09;;;;;;;1999.90;999.90;;;18.70;99.90;;;;;;5312181;26;20034;-79
2024/04/10 11:12:35;;;;;;;1999.90;999.90;;;18.60;99.90;;;;;;5347435;26;20028;-80
2024/04/10 11:15:08;;;;;;;1999.90;999.90;;;18.60;99.90;;;;;;5317098;26;20025;-79
2024/04/10 11:17:35;;;;;;;1999.90;999.90;;;18.70;99.90;;;;;;5311575;26;20062;-80
2024/04/10 11:20:01;;;;;;;1999.90;999.90;;;18.70;99.90;;;;;;5311632;26;20394;-79
2024/04/10 11:22:27;;;;;;;1999.90;999.90;;;18.80;99.90;;;;;;5310497;26;20025;-79
2024/04/10 11:24:53;;;;;;;1999.90;999.90;;;18.50;99.90;;;;;;5312347;27;20033;-79
2024/04/10 11:27:19;;;;;;;1999.90;999.90;;;18.50;99.90;;;;;;5312609;26;20370;-79
2024/04/10 11:29:47;;;;;;;1999.90;999.90;;;18.40;99.90;;;;;;5312023;27;20029;-79
2024/04/10 11:32:14;;;;;;;1999.90;999.90;;;18.30;99.90;;;;;;5312536;26;20372;-79
2024/04/10 11:34:40;;;;;;;1999.90;999.90;;;18.30;99.90;;;;;;5312710;26;20025;-79
2024/04/10 11:37:06;;;;;;;1999.90;999.90;;;18.40;99.90;;;;;;5312182;26;20033;-79
2024/04/10 11:39:32;;;;;;;1999.90;999.90;;;18.60;99.90;;;;;;5312950;26;20466;-79
2024/04/10 11:41:58;;;;;;;1999.90;999.90;;;18.60;99.90;;;;;;5311750;26;20490;-79
2024/04/10 11:44:26;;;;;;;1999.90;999.90;;;18.60;99.90;;;;;;5313164;26;20025;-79
2024/04/10 11:46:52;;;;;;;1999.90;999.90;;;18.70;99.90;;;;;;5327647;26;20049;-79
2024/04/10 11:49:21;;;;;;;1999.90;999.90;;;18.70;99.90;;;;;;5344329;26;20032;-79
2024/04/10 11:51:47;;;;;;;1999.90;999.90;;;18.30;99.90;;;;;;5343996;26;20493;-79
2024/04/10 11:54:13;;;;;;;1999.90;999.90;;;18.30;99.90;;;;;;5346572;26;20061;-79
2024/04/10 11:56:39;;;;;;;1999.90;999.90;;;18.30;99.90;;;;;;5324709;26;20456;-79
2024/04/10 11:59:05;;;;;;;1999.90;999.90;;;18.40;99.90;;;;;;5312005;26;20034;-79
2024/04/10 12:01:32;;;;;;;1999.90;999.90;;;18.40;99.90;;;;;;5311700;26;20446;-79
2024/04/10 12:03:58;;;;;;;1999.90;999.90;;;18.50;99.90;;;;;;5310153;26;20103;-80
2024/04/10 12:06:24;;;;;;;1999.90;999.90;;;18.60;99.90;;;;;;5312578;26;20050;-79
2024/04/10 12:08:50;;;;;;;1999.90;999.90;;;18.60;99.90;;;;;;5312665;26;20041;-80
2024/04/10 12:11:16;;;;;;;1999.90;999.90;;;18.70;99.90;;;;;;5311160;26;20034;-79
2024/04/10 12:13:42;;;;;;;1999.90;999.90;;;18.60;99.90;;;;;;5311670;26;20034;-79
2024/04/10 12:16:10;;;;;;;1999.90;999.90;;;18.60;99.90;;;;;;5310931;26;20053;-78
2024/04/10 12:18:36;;;;;;;1999.90;999.90;;;18.60;99.90;;;;;;5312348;26;20033;-78
2024/04/10 12:21:03;;;;;;;1999.90;999.90;;;18.60;99.90;;;;;;5311517;26;20053;-79
2024/04/10 12:23:29;;;;;;;1999.90;999.90;;;18.60;99.90;;;;;;5312127;26;20602;-78
2024/04/10 12:25:55;;;;;;;1999.90;999.90;;;18.70;99.90;;;;;;5311439;26;20033;-78
2024/04/10 12:28:21;;;;;;;1999.90;999.90;;;18.70;99.90;;;;;;5312591;26;20465;-79
2024/04/10 12:30:48;;;;;;;1999.90;999.90;;;18.70;99.90;;;;;;5310109;26;20037;-79
2024/04/10 12:33:14;;;;;;;1999.90;999.90;;;18.70;99.90;;;;;;5311335;26;20029;-79
2024/04/10 12:38:26;;;;;;;1999.90;999.90;;;18.40;99.90;;;;;;5311682;27;20473;-79
2024/04/10 12:40:55;;;;;;;1999.90;999.90;;;18.30;99.90;;;;;;5310944;26;20033;-79
2024/04/10 12:43:21;;;;;;;1999.90;999.90;;;18.30;99.90;;;;;;5311114;27;20409;-79
2024/04/10 12:45:47;;;;;;;1999.90;999.90;;;18.40;99.90;;;;;;5312992;26;20382;-79
2024/04/10 12:48:14;;;;;;;1999.90;999.90;;;18.50;99.90;;;;;;5345389;26;20033;-78
2024/04/10 12:50:40;;;;;;;1999.90;999.90;;;18.60;99.90;;;;;;5345252;26;20033;-78
2024/04/10 12:53:06;;;;;;;1999.90;999.90;;;18.70;99.90;;;;;;5345536;26;20036;-79
2024/04/10 12:55:32;;;;;;;1999.90;999.90;;;18.90;99.90;;;;;;5340026;26;20041;-78
2024/04/10 12:57:58;;;;;;;1999.90;999.90;;;19.20;99.90;;;;;;5310980;26;20466;-78
2024/04/10 13:00:25;;;;;;;1999.90;999.90;;;19.50;99.90;;;;;;5310906;26;20038;-79
2024/04/10 13:02:54;;;;;;;1999.90;999.90;;;19.50;99.90;;;;;;5311119;27;20029;-79
2024/04/10 13:05:20;;;;;;;1999.90;999.90;;;19.60;99.90;;;;;;5331044;26;20370;-79
2024/04/10 13:07:46;;;;;;;1999.90;999.90;;;19.80;99.90;;;;;;5311263;26;20029;-78
2024/04/10 13:10:12;;;;;;;1999.90;999.90;;;19.90;99.90;;;;;;5310360;26;20381;-78
2024/04/10 13:12:39;;;;;;;1999.90;999.90;;;19.80;99.90;;;;;;5311098;27;20476;-79
2024/04/10 13:15:05;;;;;;;1999.90;999.90;;;19.80;99.90;;;;;;5310539;26;20706;-78
2024/04/10 13:17:32;;;;;;;1999.90;999.90;;;19.90;99.90;;;;;;5310440;26;20038;-79
2024/04/10 13:19:58;;;;;;;1999.90;999.90;;;19.90;99.90;;;;;;5310694;27;20042;-80
2024/04/10 13:22:27;;;;;;;1999.90;999.90;;;20.00;99.90;;;;;;5310340;26;20042;-79
2024/04/10 13:24:53;;;;;;;1999.90;999.90;;;20.10;99.90;;;;;;5311774;26;20034;-78
2024/04/10 13:27:19;;;;;;;1999.90;999.90;;;20.10;99.90;;;;;;5310258;26;20398;-79
2024/04/10 13:29:49;;;;;;;1999.90;999.90;;;20.00;99.90;;;;;;5308173;26;20032;-79
2024/04/10 13:32:15;;;;;;;1999.90;999.90;;;20.00;99.90;;;;;;5308236;26;20045;-78
2024/04/10 13:34:41;;;;;;;1999.90;999.90;;;19.90;99.90;;;;;;5310455;27;20486;-78
2024/04/10 13:37:08;;;;;;;1999.90;999.90;;;19.80;99.90;;;;;;5311395;26;20034;-78
2024/04/10 13:39:34;;;;;;;1999.90;999.90;;;19.80;99.90;;;;;;5313908;27;20033;-79
2024/04/10 13:42:00;;;;;;;1999.90;999.90;;;19.80;99.90;;;;;;5314388;26;20041;-78
2024/04/10 13:44:26;;;;;;;1999.90;999.90;;;19.90;99.90;;;;;;5313179;26;20498;-78
2024/04/10 13:46:54;;;;;;;1999.90;999.90;;;19.90;99.90;;;;;;5331010;26;20045;-78
2024/04/10 13:49:20;;;;;;;1999.90;999.90;;;19.90;99.90;;;;;;5348160;26;20056;-78
2024/04/10 13:51:46;;;;;;;1999.90;999.90;;;19.90;99.90;;;;;;5346577;26;20037;-78
2024/04/10 13:54:12;;;;;;;1999.90;999.90;;;19.70;99.90;;;;;;5349041;26;20025;-78